sensor_id;sensor_type;location;lat;lon;timestamp;pressure;altitude;pressure_sealevel;temperature;humidity
77871;BME280;67067;46.850;7.578;2023-03-12T00:01:00;94921.84;;;3.00;56.08
77871;BME280;67067;46.850;7.578;2023-03-12T00:02:10;94927.06;;;3.00;55.91
77871;BME280;67067;46.850;7.578;2023-03-12T00:03:11;94927.28;;;2.98;56.29
77871;BME280;67067;46.850;7.578;2023-03-12T00:04:11;94918.66;;;2.97;55.83
77871;BME280;67067;46.850;7.578;2023-03-12T00:05:12;94914.19;;;2.98;56.11
77871;BME280;67067;46.850;7.578;2023-03-12T00:06:13;94930.13;;;2.96;56.26
77871;BME280;67067;46.850;7.578;2023-03-12T00:07:13;94927.06;;;3.00;56.21
77871;BME280;67067;46.850;7.578;2023-03-12T00:08:14;94922.28;;;2.96;56.17
77871;BME280;67067;46.850;7.578;2023-03-12T00:09:14;94913.25;;;2.92;56.34
77871;BME280;67067;46.850;7.578;2023-03-12T00:10:15;94927.91;;;2.93;56.04
77871;BME280;67067;46.850;7.578;2023-03-12T00:11:17;94935.19;;;2.91;56.16
77871;BME280;67067;46.850;7.578;2023-03-12T00:12:18;94932.75;;;2.90;56.24
77871;BME280;67067;46.850;7.578;2023-03-12T00:13:21;94926.91;;;2.94;56.13
77871;BME280;67067;46.850;7.578;2023-03-12T00:14:23;94933.34;;;2.92;56.39
77871;BME280;67067;46.850;7.578;2023-03-12T00:15:24;94937.19;;;2.89;56.34
77871;BME280;67067;46.850;7.578;2023-03-12T00:16:25;94936.56;;;2.94;56.34
77871;BME280;67067;46.850;7.578;2023-03-12T00:17:27;94938.38;;;2.93;56.42
77871;BME280;67067;46.850;7.578;2023-03-12T00:18:28;94942.00;;;2.92;56.48
77871;BME280;67067;46.850;7.578;2023-03-12T00:19:28;94941.59;;;2.95;56.20
77871;BME280;67067;46.850;7.578;2023-03-12T00:20:29;94946.41;;;2.99;56.36
77871;BME280;67067;46.850;7.578;2023-03-12T00:21:35;94935.72;;;3.00;56.15
77871;BME280;67067;46.850;7.578;2023-03-12T00:22:35;94939.13;;;3.01;56.37
77871;BME280;67067;46.850;7.578;2023-03-12T00:23:36;94937.13;;;3.03;56.23
77871;BME280;67067;46.850;7.578;2023-03-12T00:24:36;94938.91;;;3.02;56.08
77871;BME280;67067;46.850;7.578;2023-03-12T00:25:37;94941.94;;;3.06;55.94
77871;BME280;67067;46.850;7.578;2023-03-12T00:26:37;94939.94;;;3.01;55.96
77871;BME280;67067;46.850;7.578;2023-03-12T00:27:38;94951.19;;;3.02;56.09
77871;BME280;67067;46.850;7.578;2023-03-12T00:28:39;94945.75;;;3.03;56.11
77871;BME280;67067;46.850;7.578;2023-03-12T00:29:40;94948.59;;;3.02;56.12
77871;BME280;67067;46.850;7.578;2023-03-12T00:30:40;94948.38;;;3.03;56.00
77871;BME280;67067;46.850;7.578;2023-03-12T00:31:43;94945.13;;;3.08;56.02
77871;BME280;67067;46.850;7.578;2023-03-12T00:32:43;94947.75;;;3.08;56.02
77871;BME280;67067;46.850;7.578;2023-03-12T00:33:47;94950.38;;;3.08;55.90
77871;BME280;67067;46.850;7.578;2023-03-12T00:34:53;94948.75;;;3.07;56.09
77871;BME280;67067;46.850;7.578;2023-03-12T00:35:55;94949.94;;;3.11;56.22
77871;BME280;67067;46.850;7.578;2023-03-12T00:36:58;94950.94;;;3.10;56.00
77871;BME280;67067;46.850;7.578;2023-03-12T00:37:59;94949.97;;;3.04;55.90
77871;BME280;67067;46.850;7.578;2023-03-12T00:39:00;94949.19;;;3.04;56.07
77871;BME280;67067;46.850;7.578;2023-03-12T00:40:01;94952.81;;;3.03;55.98
77871;BME280;67067;46.850;7.578;2023-03-12T00:41:04;94954.00;;;3.07;55.94
77871;BME280;67067;46.850;7.578;2023-03-12T00:42:05;94954.78;;;3.07;56.07
77871;BME280;67067;46.850;7.578;2023-03-12T00:43:05;94951.38;;;3.07;56.02
77871;BME280;67067;46.850;7.578;2023-03-12T00:44:06;94958.78;;;3.10;56.08
77871;BME280;67067;46.850;7.578;2023-03-12T00:45:07;94963.00;;;3.11;56.03
77871;BME280;67067;46.850;7.578;2023-03-12T00:46:07;94962.63;;;3.07;55.92
77871;BME280;67067;46.850;7.578;2023-03-12T00:47:11;94955.59;;;3.08;56.11
77871;BME280;67067;46.850;7.578;2023-03-12T00:48:14;94955.78;;;3.06;56.11
77871;BME280;67067;46.850;7.578;2023-03-12T00:49:17;94968.28;;;3.04;56.13
77871;BME280;67067;46.850;7.578;2023-03-12T00:50:20;94956.00;;;3.05;55.84
77871;BME280;67067;46.850;7.578;2023-03-12T00:51:20;94957.22;;;3.02;55.93
77871;BME280;67067;46.850;7.578;2023-03-12T00:52:21;94963.28;;;3.03;56.08
77871;BME280;67067;46.850;7.578;2023-03-12T00:53:21;94949.59;;;3.01;55.99
77871;BME280;67067;46.850;7.578;2023-03-12T00:54:22;94957.28;;;2.95;56.27
77871;BME280;67067;46.850;7.578;2023-03-12T00:55:23;94949.84;;;2.92;56.36
77871;BME280;67067;46.850;7.578;2023-03-12T00:56:24;94954.25;;;2.92;55.99
77871;BME280;67067;46.850;7.578;2023-03-12T00:57:24;94956.53;;;2.81;56.46
77871;BME280;67067;46.850;7.578;2023-03-12T00:58:25;94954.56;;;2.70;56.71
77871;BME280;67067;46.850;7.578;2023-03-12T00:59:25;94951.72;;;2.78;56.51
77871;BME280;67067;46.850;7.578;2023-03-12T01:00:26;94951.72;;;2.78;56.50
77871;BME280;67067;46.850;7.578;2023-03-12T01:01:27;94944.50;;;2.74;56.50
77871;BME280;67067;46.850;7.578;2023-03-12T01:02:30;94944.47;;;2.80;56.37
77871;BME280;67067;46.850;7.578;2023-03-12T01:03:37;94944.69;;;2.79;56.50
77871;BME280;67067;46.850;7.578;2023-03-12T01:04:40;94944.69;;;2.79;56.31
77871;BME280;67067;46.850;7.578;2023-03-12T01:05:41;94937.88;;;2.78;56.20
77871;BME280;67067;46.850;7.578;2023-03-12T01:06:43;94941.06;;;2.80;56.46
77871;BME280;67067;46.850;7.578;2023-03-12T01:07:44;94946.88;;;2.82;56.31
77871;BME280;67067;46.850;7.578;2023-03-12T01:08:45;94940.09;;;2.74;56.54
77871;BME280;67067;46.850;7.578;2023-03-12T01:09:46;94942.09;;;2.79;56.38
77871;BME280;67067;46.850;7.578;2023-03-12T01:10:49;94940.06;;;2.81;56.29
77871;BME280;67067;46.850;7.578;2023-03-12T01:11:49;94941.84;;;2.80;56.50
77871;BME280;67067;46.850;7.578;2023-03-12T01:12:50;94939.25;;;2.74;56.64
77871;BME280;67067;46.850;7.578;2023-03-12T01:13:53;94944.72;;;2.72;56.50
77871;BME280;67067;46.850;7.578;2023-03-12T01:14:53;94947.34;;;2.65;56.75
77871;BME280;67067;46.850;7.578;2023-03-12T01:15:54;94953.97;;;2.68;56.79
77871;BME280;67067;46.850;7.578;2023-03-12T01:16:59;94950.56;;;2.67;56.86
77871;BME280;67067;46.850;7.578;2023-03-12T01:18:00;94953.38;;;2.66;56.95
77871;BME280;67067;46.850;7.578;2023-03-12T01:19:01;94950.97;;;2.64;56.83
77871;BME280;67067;46.850;7.578;2023-03-12T01:20:05;94962.63;;;2.68;56.76
77871;BME280;67067;46.850;7.578;2023-03-12T01:21:08;94962.63;;;2.68;56.68
77871;BME280;67067;46.850;7.578;2023-03-12T01:22:13;94961.59;;;2.70;56.69
77871;BME280;67067;46.850;7.578;2023-03-12T01:23:14;94975.84;;;2.74;56.47
77871;BME280;67067;46.850;7.578;2023-03-12T01:24:15;94971.88;;;2.71;56.78
77871;BME280;67067;46.850;7.578;2023-03-12T01:25:16;94972.66;;;2.72;56.59
77871;BME280;67067;46.850;7.578;2023-03-12T01:26:19;94975.25;;;2.72;56.76
77871;BME280;67067;46.850;7.578;2023-03-12T01:27:19;94975.84;;;2.74;56.77
77871;BME280;67067;46.850;7.578;2023-03-12T01:28:23;94973.25;;;2.74;56.87
77871;BME280;67067;46.850;7.578;2023-03-12T01:29:25;94976.66;;;2.81;56.43
77871;BME280;67067;46.850;7.578;2023-03-12T01:30:25;94969.00;;;2.79;56.53
77871;BME280;67067;46.850;7.578;2023-03-12T01:31:26;94971.84;;;2.78;56.49
77871;BME280;67067;46.850;7.578;2023-03-12T01:32:27;94974.25;;;2.79;56.62
77871;BME280;67067;46.850;7.578;2023-03-12T01:33:27;94972.22;;;2.81;56.47
77871;BME280;67067;46.850;7.578;2023-03-12T01:34:31;94976.66;;;2.81;56.53
77871;BME280;67067;46.850;7.578;2023-03-12T01:35:39;94971.00;;;2.84;56.51
77871;BME280;67067;46.850;7.578;2023-03-12T01:36:40;94973.03;;;2.82;56.49
77871;BME280;67067;46.850;7.578;2023-03-12T01:37:40;94963.63;;;2.67;56.76
77871;BME280;67067;46.850;7.578;2023-03-12T01:38:41;94971.44;;;2.81;56.58
77871;BME280;67067;46.850;7.578;2023-03-12T01:39:44;94969.41;;;2.83;56.47
77871;BME280;67067;46.850;7.578;2023-03-12T01:40:45;94969.00;;;2.79;56.52
77871;BME280;67067;46.850;7.578;2023-03-12T01:41:45;94965.38;;;2.80;56.70
77871;BME280;67067;46.850;7.578;2023-03-12T01:42:53;94970.84;;;2.79;56.67
77871;BME280;67067;46.850;7.578;2023-03-12T01:44:00;94962.56;;;2.82;56.72
77871;BME280;67067;46.850;7.578;2023-03-12T01:45:50;94966.19;;;2.81;56.71
77871;BME280;67067;46.850;7.578;2023-03-12T01:47:30;94963.59;;;2.81;56.62
77871;BME280;67067;46.850;7.578;2023-03-12T01:48:39;94968.41;;;2.84;56.49
77871;BME280;67067;46.850;7.578;2023-03-12T01:49:41;94977.44;;;2.81;56.64
77871;BME280;67067;46.850;7.578;2023-03-12T01:50:41;94969.59;;;2.81;56.51
77871;BME280;67067;46.850;7.578;2023-03-12T01:51:53;94975.66;;;2.82;56.40
77871;BME280;67067;46.850;7.578;2023-03-12T01:52:56;94975.06;;;2.80;56.67
77871;BME280;67067;46.850;7.578;2023-03-12T01:54:01;94984.88;;;2.85;56.53
77871;BME280;67067;46.850;7.578;2023-03-12T01:55:14;94988.13;;;2.80;56.35
77871;BME280;67067;46.850;7.578;2023-03-12T01:56:20;94998.75;;;2.85;56.26
77871;BME280;67067;46.850;7.578;2023-03-12T01:58:07;94998.75;;;2.85;56.22
77871;BME280;67067;46.850;7.578;2023-03-12T01:58:52;94998.94;;;2.83;56.05
77871;BME280;67067;46.850;7.578;2023-03-12T02:00:00;94996.34;;;2.83;56.09
77871;BME280;67067;46.850;7.578;2023-03-12T02:01:17;94991.94;;;2.84;55.97
77871;BME280;67067;46.850;7.578;2023-03-12T02:02:20;94992.13;;;2.82;56.19
77871;BME280;67067;46.850;7.578;2023-03-12T02:03:27;94995.13;;;2.86;56.17
77871;BME280;67067;46.850;7.578;2023-03-12T02:04:29;94993.72;;;2.83;56.14
77871;BME280;67067;46.850;7.578;2023-03-12T02:05:41;94997.78;;;2.73;56.62
77871;BME280;67067;46.850;7.578;2023-03-12T02:06:47;94993.56;;;2.72;56.44
77871;BME280;67067;46.850;7.578;2023-03-12T02:07:49;94995.81;;;2.68;56.39
77871;BME280;67067;46.850;7.578;2023-03-12T02:08:49;94986.56;;;2.65;56.55
77871;BME280;67067;46.850;7.578;2023-03-12T02:09:50;94989.97;;;2.66;56.59
77871;BME280;67067;46.850;7.578;2023-03-12T02:10:51;94987.75;;;2.70;56.42
77871;BME280;67067;46.850;7.578;2023-03-12T02:11:53;94985.53;;;2.66;56.75
77871;BME280;67067;46.850;7.578;2023-03-12T02:12:54;94987.97;;;2.61;56.70
77871;BME280;67067;46.850;7.578;2023-03-12T02:13:55;94980.72;;;2.63;56.77
77871;BME280;67067;46.850;7.578;2023-03-12T02:14:56;94982.34;;;2.64;56.60
77871;BME280;67067;46.850;7.578;2023-03-12T02:15:56;94985.19;;;2.56;56.71
77871;BME280;67067;46.850;7.578;2023-03-12T02:16:57;94988.00;;;2.55;56.83
77871;BME280;67067;46.850;7.578;2023-03-12T02:18:07;94988.22;;;2.53;56.69
77871;BME280;67067;46.850;7.578;2023-03-12T02:20:36;94991.22;;;2.50;56.85
77871;BME280;67067;46.850;7.578;2023-03-12T02:21:38;94989.63;;;2.49;57.00
77871;BME280;67067;46.850;7.578;2023-03-12T02:22:39;94988.63;;;2.50;56.86
77871;BME280;67067;46.850;7.578;2023-03-12T02:26:20;94991.22;;;2.57;56.98
77871;BME280;67067;46.850;7.578;2023-03-12T02:27:22;94992.44;;;2.54;57.10
77871;BME280;67067;46.850;7.578;2023-03-12T02:28:24;94999.25;;;2.55;57.08
77871;BME280;67067;46.850;7.578;2023-03-12T02:29:26;94995.22;;;2.59;56.95
77871;BME280;67067;46.850;7.578;2023-03-12T02:30:29;94994.03;;;2.55;56.86
77871;BME280;67067;46.850;7.578;2023-03-12T02:31:32;94989.22;;;2.52;57.04
77871;BME280;67067;46.850;7.578;2023-03-12T02:32:35;94987.59;;;2.51;57.13
77871;BME280;67067;46.850;7.578;2023-03-12T02:33:37;94987.19;;;2.54;56.80
77871;BME280;67067;46.850;7.578;2023-03-12T02:34:37;94986.00;;;2.57;56.79
77871;BME280;67067;46.850;7.578;2023-03-12T02:35:38;94989.19;;;2.59;56.89
77871;BME280;67067;46.850;7.578;2023-03-12T02:36:38;94987.78;;;2.56;56.94
77871;BME280;67067;46.850;7.578;2023-03-12T02:39:05;94985.00;;;2.51;56.99
77871;BME280;67067;46.850;7.578;2023-03-12T02:40:09;94984.63;;;2.47;57.22
77871;BME280;67067;46.850;7.578;2023-03-12T02:41:14;94986.19;;;2.55;56.95
77871;BME280;67067;46.850;7.578;2023-03-12T02:42:15;94988.22;;;2.53;57.13
77871;BME280;67067;46.850;7.578;2023-03-12T02:43:16;94994.63;;;2.57;56.96
77871;BME280;67067;46.850;7.578;2023-03-12T02:44:38;94992.19;;;2.62;56.67
77871;BME280;67067;46.850;7.578;2023-03-12T02:45:38;94986.78;;;2.57;56.85
77871;BME280;67067;46.850;7.578;2023-03-12T02:46:43;94998.25;;;2.56;57.13
77871;BME280;67067;46.850;7.578;2023-03-12T02:47:44;94996.22;;;2.58;57.11
77871;BME280;67067;46.850;7.578;2023-03-12T02:48:44;94991.19;;;2.63;56.94
77871;BME280;67067;46.850;7.578;2023-03-12T02:49:45;94986.19;;;2.62;56.87
77871;BME280;67067;46.850;7.578;2023-03-12T02:50:46;94995.22;;;2.59;57.00
77871;BME280;67067;46.850;7.578;2023-03-12T02:51:46;94993.19;;;2.61;56.85
77871;BME280;67067;46.850;7.578;2023-03-12T02:52:47;94991.59;;;2.60;56.90
77871;BME280;67067;46.850;7.578;2023-03-12T02:53:51;94996.63;;;2.62;56.97
77871;BME280;67067;46.850;7.578;2023-03-12T02:54:54;95000.03;;;2.62;57.04
77871;BME280;67067;46.850;7.578;2023-03-12T02:55:54;94997.41;;;2.62;56.91
77871;BME280;67067;46.850;7.578;2023-03-12T02:56:55;94994.81;;;2.62;57.14
77871;BME280;67067;46.850;7.578;2023-03-12T02:57:59;95001.25;;;2.60;56.94
77871;BME280;67067;46.850;7.578;2023-03-12T02:59:00;94993.78;;;2.63;56.94
77871;BME280;67067;46.850;7.578;2023-03-12T03:00:06;94999.25;;;2.62;57.04
77871;BME280;67067;46.850;7.578;2023-03-12T03:01:13;94997.63;;;2.61;57.15
77871;BME280;67067;46.850;7.578;2023-03-12T03:02:14;94997.63;;;2.61;57.09
77871;BME280;67067;46.850;7.578;2023-03-12T03:03:14;94989.56;;;2.62;56.78
77871;BME280;67067;46.850;7.578;2023-03-12T03:04:17;94986.78;;;2.64;56.83
77871;BME280;67067;46.850;7.578;2023-03-12T03:05:17;94981.56;;;2.57;56.89
77871;BME280;67067;46.850;7.578;2023-03-12T03:06:19;94980.78;;;2.50;56.99
77871;BME280;67067;46.850;7.578;2023-03-12T03:07:20;94982.38;;;2.51;57.10
77871;BME280;67067;46.850;7.578;2023-03-12T03:08:20;94981.78;;;2.49;57.12
77871;BME280;67067;46.850;7.578;2023-03-12T03:09:22;94981.59;;;2.50;56.97
77871;BME280;67067;46.850;7.578;2023-03-12T03:10:23;94984.81;;;2.46;57.12
77871;BME280;67067;46.850;7.578;2023-03-12T03:11:24;94989.84;;;2.47;57.03
77871;BME280;67067;46.850;7.578;2023-03-12T03:12:27;94989.44;;;2.50;56.94
77871;BME280;67067;46.850;7.578;2023-03-12T03:13:30;94992.84;;;2.51;56.95
77871;BME280;67067;46.850;7.578;2023-03-12T03:14:31;94994.44;;;2.52;57.08
77871;BME280;67067;46.850;7.578;2023-03-12T03:15:31;94996.03;;;2.53;57.15
77871;BME280;67067;46.850;7.578;2023-03-12T03:16:32;94991.81;;;2.52;57.08
77871;BME280;67067;46.850;7.578;2023-03-12T03:17:35;94995.25;;;2.52;57.05
77871;BME280;67067;46.850;7.578;2023-03-12T03:18:35;94986.59;;;2.52;57.26
77871;BME280;67067;46.850;7.578;2023-03-12T03:19:35;94983.38;;;2.57;56.94
77871;BME280;67067;46.850;7.578;2023-03-12T03:20:37;94974.38;;;2.46;57.36
77871;BME280;67067;46.850;7.578;2023-03-12T03:21:37;94974.38;;;2.46;57.11
77871;BME280;67067;46.850;7.578;2023-03-12T03:22:38;94958.72;;;2.32;57.50
77871;BME280;67067;46.850;7.578;2023-03-12T03:23:38;94961.56;;;2.24;57.62
77871;BME280;67067;46.850;7.578;2023-03-12T03:24:38;94959.78;;;2.11;58.08
77871;BME280;67067;46.850;7.578;2023-03-12T03:25:39;94960.75;;;2.23;57.73
77871;BME280;67067;46.850;7.578;2023-03-12T03:26:39;94956.75;;;2.21;57.80
77871;BME280;67067;46.850;7.578;2023-03-12T03:27:40;94955.34;;;2.25;57.67
77871;BME280;67067;46.850;7.578;2023-03-12T03:28:40;94964.19;;;2.24;57.79
77871;BME280;67067;46.850;7.578;2023-03-12T03:29:46;94952.50;;;2.27;57.63
77871;BME280;67067;46.850;7.578;2023-03-12T03:30:47;94948.47;;;2.31;57.42
77871;BME280;67067;46.850;7.578;2023-03-12T03:31:47;94951.50;;;2.34;57.30
77871;BME280;67067;46.850;7.578;2023-03-12T03:32:48;94957.50;;;2.35;57.53
77871;BME280;67067;46.850;7.578;2023-03-12T03:33:49;94959.94;;;2.36;57.36
77871;BME280;67067;46.850;7.578;2023-03-12T03:34:49;94955.50;;;2.37;57.88
77871;BME280;67067;46.850;7.578;2023-03-12T03:35:51;94959.50;;;2.39;57.39
77871;BME280;67067;46.850;7.578;2023-03-12T03:36:51;94967.13;;;2.41;57.32
77871;BME280;67067;46.850;7.578;2023-03-12T03:37:52;94966.53;;;2.39;57.54
77871;BME280;67067;46.850;7.578;2023-03-12T03:38:52;94958.28;;;2.42;57.47
77871;BME280;67067;46.850;7.578;2023-03-12T03:39:53;94964.72;;;2.46;57.40
77871;BME280;67067;46.850;7.578;2023-03-12T03:40:53;94959.69;;;2.45;57.32
77871;BME280;67067;46.850;7.578;2023-03-12T03:41:54;94963.50;;;2.49;57.24
77871;BME280;67067;46.850;7.578;2023-03-12T03:42:57;94968.31;;;2.52;57.19
77871;BME280;67067;46.850;7.578;2023-03-12T03:43:58;94963.09;;;2.52;57.31
77871;BME280;67067;46.850;7.578;2023-03-12T03:44:59;94960.28;;;2.53;57.32
77871;BME280;67067;46.850;7.578;2023-03-12T03:46:00;94958.25;;;2.56;57.18
77871;BME280;67067;46.850;7.578;2023-03-12T03:47:01;94966.69;;;2.58;57.27
77871;BME280;67067;46.850;7.578;2023-03-12T03:48:04;94966.28;;;2.54;57.27
77871;BME280;67067;46.850;7.578;2023-03-12T03:49:05;94965.09;;;2.57;57.30
77871;BME280;67067;46.850;7.578;2023-03-12T03:50:07;94964.09;;;2.58;57.17
77871;BME280;67067;46.850;7.578;2023-03-12T03:51:08;94960.22;;;2.60;57.01
77871;BME280;67067;46.850;7.578;2023-03-12T03:52:10;94955.66;;;2.56;57.09
77871;BME280;67067;46.850;7.578;2023-03-12T03:53:11;94958.28;;;2.49;57.35
77871;BME280;67067;46.850;7.578;2023-03-12T03:54:12;94966.13;;;2.49;57.43
77871;BME280;67067;46.850;7.578;2023-03-12T03:55:13;94973.13;;;2.55;57.16
77871;BME280;67067;46.850;7.578;2023-03-12T03:56:14;94966.47;;;2.59;56.98
77871;BME280;67067;46.850;7.578;2023-03-12T03:57:19;94958.88;;;2.44;57.51
77871;BME280;67067;46.850;7.578;2023-03-12T03:58:20;94954.38;;;2.13;58.37
77871;BME280;67067;46.850;7.578;2023-03-12T03:59:20;94957.31;;;2.30;57.70
77871;BME280;67067;46.850;7.578;2023-03-12T04:00:21;94965.34;;;2.35;57.79
77871;BME280;67067;46.850;7.578;2023-03-12T04:01:24;94963.13;;;2.38;57.46
77871;BME280;67067;46.850;7.578;2023-03-12T04:02:26;94965.13;;;2.43;57.58
77871;BME280;67067;46.850;7.578;2023-03-12T04:03:26;94963.91;;;2.46;57.55
77871;BME280;67067;46.850;7.578;2023-03-12T04:04:27;94951.44;;;2.41;57.71
77871;BME280;67067;46.850;7.578;2023-03-12T04:05:30;94946.69;;;2.24;58.12
77871;BME280;67067;46.850;7.578;2023-03-12T04:06:30;94951.13;;;2.24;58.14
77871;BME280;67067;46.850;7.578;2023-03-12T04:07:31;94956.94;;;2.19;58.19
77871;BME280;67067;46.850;7.578;2023-03-12T04:08:32;94962.78;;;2.28;57.89
77871;BME280;67067;46.850;7.578;2023-03-12T04:09:35;94962.34;;;2.31;57.86
77871;BME280;67067;46.850;7.578;2023-03-12T04:10:35;94959.94;;;2.36;57.75
77871;BME280;67067;46.850;7.578;2023-03-12T04:11:36;94951.88;;;2.38;57.60
77871;BME280;67067;46.850;7.578;2023-03-12T04:12:38;94954.88;;;2.42;57.45
77871;BME280;67067;46.850;7.578;2023-03-12T04:13:39;94948.66;;;2.43;57.40
77871;BME280;67067;46.850;7.578;2023-03-12T04:14:40;94943.25;;;2.37;57.41
77871;BME280;67067;46.850;7.578;2023-03-12T04:15:45;94944.25;;;2.30;57.62
77871;BME280;67067;46.850;7.578;2023-03-12T04:16:48;94941.47;;;2.24;57.35
77871;BME280;67067;46.850;7.578;2023-03-12T04:17:48;94947.94;;;2.15;57.88
77871;BME280;67067;46.850;7.578;2023-03-12T04:18:49;94951.53;;;2.14;57.80
77871;BME280;67067;46.850;7.578;2023-03-12T04:19:50;94963.59;;;2.15;57.57
77871;BME280;67067;46.850;7.578;2023-03-12T04:20:50;94957.16;;;2.18;57.46
77871;BME280;67067;46.850;7.578;2023-03-12T04:21:51;94958.38;;;2.15;57.65
77871;BME280;67067;46.850;7.578;2023-03-12T04:22:51;94954.75;;;2.09;57.83
77871;BME280;67067;46.850;7.578;2023-03-12T04:23:51;94947.94;;;2.08;57.74
77871;BME280;67067;46.850;7.578;2023-03-12T04:24:55;94942.31;;;2.05;57.74
77871;BME280;67067;46.850;7.578;2023-03-12T04:25:58;94947.34;;;1.93;58.11
77871;BME280;67067;46.850;7.578;2023-03-12T04:27:02;94945.72;;;1.92;57.96
77871;BME280;67067;46.850;7.578;2023-03-12T04:28:03;94945.53;;;1.87;58.10
77871;BME280;67067;46.850;7.578;2023-03-12T04:29:03;94949.97;;;1.86;57.97
77871;BME280;67067;46.850;7.578;2023-03-12T04:30:04;94947.34;;;1.86;57.86
77871;BME280;67067;46.850;7.578;2023-03-12T04:31:06;94936.69;;;1.88;57.94
77871;BME280;67067;46.850;7.578;2023-03-12T04:32:11;94939.72;;;1.85;58.04
77871;BME280;67067;46.850;7.578;2023-03-12T04:33:12;94942.13;;;1.79;58.31
77871;BME280;67067;46.850;7.578;2023-03-12T04:34:12;94950.56;;;1.75;58.68
77871;BME280;67067;46.850;7.578;2023-03-12T04:35:13;94950.38;;;1.76;58.40
77871;BME280;67067;46.850;7.578;2023-03-12T04:36:13;94950.78;;;1.73;58.57
77871;BME280;67067;46.850;7.578;2023-03-12T04:37:17;94946.16;;;1.62;59.40
77871;BME280;67067;46.850;7.578;2023-03-12T04:38:19;94946.34;;;1.60;59.61
77871;BME280;67067;46.850;7.578;2023-03-12T04:39:20;94945.16;;;1.63;59.55
77871;BME280;67067;46.850;7.578;2023-03-12T04:40:23;94948.19;;;1.60;59.77
77871;BME280;67067;46.850;7.578;2023-03-12T04:41:26;94943.53;;;1.69;59.28
77871;BME280;67067;46.850;7.578;2023-03-12T04:42:33;94945.53;;;1.66;59.42
77871;BME280;67067;46.850;7.578;2023-03-12T04:43:36;94940.75;;;1.70;59.44
77871;BME280;67067;46.850;7.578;2023-03-12T04:44:37;94949.56;;;1.76;59.21
77871;BME280;67067;46.850;7.578;2023-03-12T04:45:37;94952.16;;;1.83;59.05
77871;BME280;67067;46.850;7.578;2023-03-12T04:46:38;94947.97;;;1.88;58.78
77871;BME280;67067;46.850;7.578;2023-03-12T04:47:39;94951.75;;;1.92;58.75
77871;BME280;67067;46.850;7.578;2023-03-12T04:48:40;94954.75;;;1.96;58.74
77871;BME280;67067;46.850;7.578;2023-03-12T04:49:40;94950.75;;;2.00;58.82
77871;BME280;67067;46.850;7.578;2023-03-12T04:50:41;94958.59;;;2.07;58.46
77871;BME280;67067;46.850;7.578;2023-03-12T04:51:41;94956.78;;;2.07;58.71
77871;BME280;67067;46.850;7.578;2023-03-12T04:52:42;94951.53;;;2.14;58.56
77871;BME280;67067;46.850;7.578;2023-03-12T04:53:42;94949.94;;;2.20;58.24
77871;BME280;67067;46.850;7.578;2023-03-12T04:54:47;94954.34;;;2.19;58.31
77871;BME280;67067;46.850;7.578;2023-03-12T04:55:47;94958.38;;;2.22;58.15
77871;BME280;67067;46.850;7.578;2023-03-12T04:56:49;94957.13;;;2.24;58.03
77871;BME280;67067;46.850;7.578;2023-03-12T04:57:50;94967.19;;;2.28;57.90
77871;BME280;67067;46.850;7.578;2023-03-12T04:58:51;94968.00;;;2.21;58.25
77871;BME280;67067;46.850;7.578;2023-03-12T04:59:51;94969.78;;;2.28;57.84
77871;BME280;67067;46.850;7.578;2023-03-12T05:00:52;94965.78;;;2.25;57.93
77871;BME280;67067;46.850;7.578;2023-03-12T05:01:52;94978.47;;;2.15;58.23
77871;BME280;67067;46.850;7.578;2023-03-12T05:02:58;94989.31;;;2.12;58.37
77871;BME280;67067;46.850;7.578;2023-03-12T05:03:58;94987.50;;;2.05;58.64
77871;BME280;67067;46.850;7.578;2023-03-12T05:04:59;94995.53;;;2.10;58.47
77871;BME280;67067;46.850;7.578;2023-03-12T05:06:00;94984.91;;;2.12;58.36
77871;BME280;67067;46.850;7.578;2023-03-12T05:07:00;94980.25;;;2.07;58.45
77871;BME280;67067;46.850;7.578;2023-03-12T05:08:01;94985.09;;;2.04;58.76
77871;BME280;67067;46.850;7.578;2023-03-12T05:09:01;94989.09;;;2.06;58.86
77871;BME280;67067;46.850;7.578;2023-03-12T05:10:03;94993.72;;;2.11;58.73
77871;BME280;67067;46.850;7.578;2023-03-12T05:11:03;94996.16;;;2.13;58.68
77871;BME280;67067;46.850;7.578;2023-03-12T05:12:04;94996.94;;;2.13;58.71
77871;BME280;67067;46.850;7.578;2023-03-12T05:13:15;94996.53;;;2.16;58.75
77871;BME280;67067;46.850;7.578;2023-03-12T05:14:19;94992.50;;;2.20;58.40
77871;BME280;67067;46.850;7.578;2023-03-12T05:15:21;94995.94;;;2.21;58.67
77871;BME280;67067;46.850;7.578;2023-03-12T05:16:22;95006.78;;;2.18;58.60
77871;BME280;67067;46.850;7.578;2023-03-12T05:17:22;95008.41;;;2.19;58.70
77871;BME280;67067;46.850;7.578;2023-03-12T05:18:23;95011.38;;;2.22;58.74
77871;BME280;67067;46.850;7.578;2023-03-12T05:19:28;95015.81;;;2.22;58.51
77871;BME280;67067;46.850;7.578;2023-03-12T05:20:28;95024.84;;;2.26;58.40
77871;BME280;67067;46.850;7.578;2023-03-12T05:21:31;95025.88;;;2.25;58.39
77871;BME280;67067;46.850;7.578;2023-03-12T05:22:32;95027.66;;;2.24;58.64
77871;BME280;67067;46.850;7.578;2023-03-12T05:23:33;95033.28;;;2.28;58.52
77871;BME280;67067;46.850;7.578;2023-03-12T05:24:38;95037.47;;;2.36;58.44
77871;BME280;67067;46.850;7.578;2023-03-12T05:25:39;95034.47;;;2.39;58.19
77871;BME280;67067;46.850;7.578;2023-03-12T05:26:40;95037.47;;;2.36;57.97
77871;BME280;67067;46.850;7.578;2023-03-12T05:27:49;95040.72;;;2.31;58.36
77871;BME280;67067;46.850;7.578;2023-03-12T05:28:50;95035.28;;;2.33;58.25
77871;BME280;67067;46.850;7.578;2023-03-12T05:29:52;95034.50;;;2.32;58.27
77871;BME280;67067;46.850;7.578;2023-03-12T05:32:52;95042.94;;;2.21;58.51
77871;BME280;67067;46.850;7.578;2023-03-12T05:33:52;95042.34;;;2.19;58.64
77871;BME280;67067;46.850;7.578;2023-03-12T05:34:53;95037.72;;;2.21;58.51
77871;BME280;67067;46.850;7.578;2023-03-12T05:35:53;95045.97;;;2.18;58.68
77871;BME280;67067;46.850;7.578;2023-03-12T05:36:54;95047.56;;;2.05;59.26
77871;BME280;67067;46.850;7.578;2023-03-12T05:37:57;95047.56;;;2.12;59.19
77871;BME280;67067;46.850;7.578;2023-03-12T05:38:58;95035.31;;;2.13;59.18
77871;BME280;67067;46.850;7.578;2023-03-12T05:40:00;95026.06;;;2.17;59.55
77871;BME280;67067;46.850;7.578;2023-03-12T05:41:03;95029.09;;;2.07;59.81
77871;BME280;67067;46.850;7.578;2023-03-12T05:42:08;95035.72;;;2.03;60.17